<?xml version="1.0" encoding="utf-8"?>
<gpx xmlns:xsi="http://www.w3.org/2001/XMLSchema-instance" xmlns:xsd="http://www.w3.org/2001/XMLSchema" version="1.1" creator="Shapelink.com" xmlns="http://www.topografix.com/GPX/1/1" xmlns:gpxtpx="http://www.garmin.com/xmlschemas/TrackPointExtension/v1">
  <metadata>
    <name>Löpning 7.62 km, 2011-09-02</name>
    <desc></desc>
    <author><name>Alexander Engvall</name></author> 
    <time>2011-09-02T19:01:45Z</time>
  </metadata>
  <trk>
    <name>Löpning 7.62 km, 2011-09-02</name>
    <trkseg>
      <trkpt lat="59.4590388" lon="17.8045697">
        <ele>80.4075</ele>
        <time>2011-09-02T19:01:45Z</time>
      </trkpt>
      <trkpt lat="59.4590072" lon="17.8045863">
        <ele>79.9266</ele>
        <time>2011-09-02T19:01:47Z</time>
      </trkpt>
      <trkpt lat="59.4587493" lon="17.8045883">
        <ele>71.2749</ele>
        <time>2011-09-02T19:01:52Z</time>
      </trkpt>
      <trkpt lat="59.4587018" lon="17.8045828">
        <ele>69.8329</ele>
        <time>2011-09-02T19:01:53Z</time>
      </trkpt>
      <trkpt lat="59.4585364" lon="17.8045569">
        <ele>66.4683</ele>
        <time>2011-09-02T19:01:56Z</time>
      </trkpt>
      <trkpt lat="59.4583546" lon="17.8045163">
        <ele>59.7391</ele>
        <time>2011-09-02T19:02:00Z</time>
      </trkpt>
      <trkpt lat="59.4581169" lon="17.8044283">
        <ele>44.8386</ele>
        <time>2011-09-02T19:02:07Z</time>
      </trkpt>
      <trkpt lat="59.4579838" lon="17.8044577">
        <ele>37.6287</ele>
        <time>2011-09-02T19:02:11Z</time>
      </trkpt>
      <trkpt lat="59.4579159" lon="17.8044786">
        <ele>34.2642</ele>
        <time>2011-09-02T19:02:13Z</time>
      </trkpt>
      <trkpt lat="59.4577826" lon="17.804571">
        <ele>25.6123</ele>
        <time>2011-09-02T19:02:18Z</time>
      </trkpt>
      <trkpt lat="59.4576419" lon="17.8047299">
        <ele>22.2476</ele>
        <time>2011-09-02T19:02:23Z</time>
      </trkpt>
      <trkpt lat="59.4575229" lon="17.8048495">
        <ele>20.325</ele>
        <time>2011-09-02T19:02:27Z</time>
      </trkpt>
      <trkpt lat="59.4573586" lon="17.8051126">
        <ele>21.767</ele>
        <time>2011-09-02T19:02:33Z</time>
      </trkpt>
      <trkpt lat="59.4572265" lon="17.8053652">
        <ele>22.2476</ele>
        <time>2011-09-02T19:02:38Z</time>
      </trkpt>
      <trkpt lat="59.4571362" lon="17.8055017">
        <ele>22.7283</ele>
        <time>2011-09-02T19:02:41Z</time>
      </trkpt>
      <trkpt lat="59.4569938" lon="17.8055284">
        <ele>23.209</ele>
        <time>2011-09-02T19:02:45Z</time>
      </trkpt>
      <trkpt lat="59.4567975" lon="17.8054472">
        <ele>27.0543</ele>
        <time>2011-09-02T19:02:50Z</time>
      </trkpt>
      <trkpt lat="59.4566461" lon="17.8053304">
        <ele>30.4188</ele>
        <time>2011-09-02T19:02:54Z</time>
      </trkpt>
      <trkpt lat="59.456462" lon="17.8051999">
        <ele>31.8607</ele>
        <time>2011-09-02T19:02:59Z</time>
      </trkpt>
      <trkpt lat="59.4563142" lon="17.805051">
        <ele>30.8995</ele>
        <time>2011-09-02T19:03:04Z</time>
      </trkpt>
      <trkpt lat="59.456105" lon="17.8049241">
        <ele>32.8223</ele>
        <time>2011-09-02T19:03:10Z</time>
      </trkpt>
      <trkpt lat="59.4559303" lon="17.8047769">
        <ele>34.7449</ele>
        <time>2011-09-02T19:03:15Z</time>
      </trkpt>
      <trkpt lat="59.4557702" lon="17.8046143">
        <ele>33.7834</ele>
        <time>2011-09-02T19:03:20Z</time>
      </trkpt>
      <trkpt lat="59.4556342" lon="17.8044661">
        <ele>31.8607</ele>
        <time>2011-09-02T19:03:24Z</time>
      </trkpt>
      <trkpt lat="59.4554647" lon="17.8043484">
        <ele>29.9381</ele>
        <time>2011-09-02T19:03:29Z</time>
      </trkpt>
      <trkpt lat="59.4552553" lon="17.8042515">
        <ele>28.9769</ele>
        <time>2011-09-02T19:03:35Z</time>
      </trkpt>
      <trkpt lat="59.4550969" lon="17.8042408">
        <ele>27.5349</ele>
        <time>2011-09-02T19:03:39Z</time>
      </trkpt>
      <trkpt lat="59.4549373" lon="17.8043017">
        <ele>26.5736</ele>
        <time>2011-09-02T19:03:43Z</time>
      </trkpt>
      <trkpt lat="59.4548074" lon="17.8043744">
        <ele>27.5349</ele>
        <time>2011-09-02T19:03:47Z</time>
      </trkpt>
      <trkpt lat="59.4546108" lon="17.8045744">
        <ele>27.5349</ele>
        <time>2011-09-02T19:03:53Z</time>
      </trkpt>
      <trkpt lat="59.4544758" lon="17.8047831">
        <ele>29.4575</ele>
        <time>2011-09-02T19:03:58Z</time>
      </trkpt>
      <trkpt lat="59.4542843" lon="17.8050683">
        <ele>31.8607</ele>
        <time>2011-09-02T19:04:05Z</time>
      </trkpt>
      <trkpt lat="59.4542044" lon="17.8051505">
        <ele>33.3029</ele>
        <time>2011-09-02T19:04:08Z</time>
      </trkpt>
      <trkpt lat="59.454126" lon="17.8050026">
        <ele>33.3029</ele>
        <time>2011-09-02T19:04:12Z</time>
      </trkpt>
      <trkpt lat="59.4541902" lon="17.8048589">
        <ele>31.3801</ele>
        <time>2011-09-02T19:04:15Z</time>
      </trkpt>
      <trkpt lat="59.4542187" lon="17.8048193">
        <ele>31.3801</ele>
        <time>2011-09-02T19:04:16Z</time>
      </trkpt>
      <trkpt lat="59.4543909" lon="17.8045723">
        <ele>29.4575</ele>
        <time>2011-09-02T19:04:22Z</time>
      </trkpt>
      <trkpt lat="59.4545435" lon="17.8044007">
        <ele>27.0543</ele>
        <time>2011-09-02T19:04:27Z</time>
      </trkpt>
      <trkpt lat="59.4546779" lon="17.8042998">
        <ele>24.1703</ele>
        <time>2011-09-02T19:04:31Z</time>
      </trkpt>
      <trkpt lat="59.4548592" lon="17.8042077">
        <ele>21.2864</ele>
        <time>2011-09-02T19:04:36Z</time>
      </trkpt>
      <trkpt lat="59.4549581" lon="17.8041039">
        <ele>19.8444</ele>
        <time>2011-09-02T19:04:39Z</time>
      </trkpt>
      <trkpt lat="59.4550126" lon="17.8037855">
        <ele>19.3638</ele>
        <time>2011-09-02T19:04:44Z</time>
      </trkpt>
      <trkpt lat="59.4550072" lon="17.8037191">
        <ele>19.3638</ele>
        <time>2011-09-02T19:04:45Z</time>
      </trkpt>
      <trkpt lat="59.4549439" lon="17.8033876">
        <ele>18.4023</ele>
        <time>2011-09-02T19:04:50Z</time>
      </trkpt>
      <trkpt lat="59.4548882" lon="17.8031522">
        <ele>18.4023</ele>
        <time>2011-09-02T19:04:54Z</time>
      </trkpt>
      <trkpt lat="59.4547805" lon="17.8028763">
        <ele>18.4023</ele>
        <time>2011-09-02T19:04:59Z</time>
      </trkpt>
      <trkpt lat="59.454712" lon="17.8027195">
        <ele>17.9218</ele>
        <time>2011-09-02T19:05:02Z</time>
      </trkpt>
      <trkpt lat="59.4545269" lon="17.8027416">
        <ele>20.325</ele>
        <time>2011-09-02T19:05:07Z</time>
      </trkpt>
      <trkpt lat="59.4543722" lon="17.802974">
        <ele>21.2864</ele>
        <time>2011-09-02T19:05:13Z</time>
      </trkpt>
      <trkpt lat="59.4542479" lon="17.8032679">
        <ele>22.7283</ele>
        <time>2011-09-02T19:05:19Z</time>
      </trkpt>
      <trkpt lat="59.4541686" lon="17.803424">
        <ele>24.651</ele>
        <time>2011-09-02T19:05:23Z</time>
      </trkpt>
      <trkpt lat="59.4540628" lon="17.803529">
        <ele>26.0929</ele>
        <time>2011-09-02T19:05:27Z</time>
      </trkpt>
      <trkpt lat="59.4539123" lon="17.8036067">
        <ele>27.5349</ele>
        <time>2011-09-02T19:05:32Z</time>
      </trkpt>
      <trkpt lat="59.4537796" lon="17.8036378">
        <ele>28.4962</ele>
        <time>2011-09-02T19:05:36Z</time>
      </trkpt>
      <trkpt lat="59.4536416" lon="17.8036558">
        <ele>28.4962</ele>
        <time>2011-09-02T19:05:40Z</time>
      </trkpt>
      <trkpt lat="59.453503" lon="17.8036512">
        <ele>26.5736</ele>
        <time>2011-09-02T19:05:44Z</time>
      </trkpt>
      <trkpt lat="59.4533073" lon="17.803628">
        <ele>28.0155</ele>
        <time>2011-09-02T19:05:50Z</time>
      </trkpt>
      <trkpt lat="59.4531072" lon="17.8036519">
        <ele>26.5736</ele>
        <time>2011-09-02T19:05:56Z</time>
      </trkpt>
      <trkpt lat="59.4530011" lon="17.8036985">
        <ele>27.5349</ele>
        <time>2011-09-02T19:05:59Z</time>
      </trkpt>
      <trkpt lat="59.4529326" lon="17.8037304">
        <ele>27.0543</ele>
        <time>2011-09-02T19:06:01Z</time>
      </trkpt>
      <trkpt lat="59.4528111" lon="17.8038932">
        <ele>26.5736</ele>
        <time>2011-09-02T19:06:05Z</time>
      </trkpt>
      <trkpt lat="59.4526707" lon="17.8041241">
        <ele>22.7283</ele>
        <time>2011-09-02T19:06:10Z</time>
      </trkpt>
      <trkpt lat="59.452579" lon="17.8042693">
        <ele>21.767</ele>
        <time>2011-09-02T19:06:13Z</time>
      </trkpt>
      <trkpt lat="59.4525528" lon="17.8043054">
        <ele>22.2476</ele>
        <time>2011-09-02T19:06:14Z</time>
      </trkpt>
      <trkpt lat="59.4523871" lon="17.8044863">
        <ele>23.209</ele>
        <time>2011-09-02T19:06:19Z</time>
      </trkpt>
      <trkpt lat="59.4522799" lon="17.804621">
        <ele>21.767</ele>
        <time>2011-09-02T19:06:23Z</time>
      </trkpt>
      <trkpt lat="59.4521151" lon="17.804812">
        <ele>20.325</ele>
        <time>2011-09-02T19:06:28Z</time>
      </trkpt>
      <trkpt lat="59.4520174" lon="17.8049371">
        <ele>18.8831</ele>
        <time>2011-09-02T19:06:32Z</time>
      </trkpt>
      <trkpt lat="59.4518913" lon="17.8050824">
        <ele>21.2864</ele>
        <time>2011-09-02T19:06:37Z</time>
      </trkpt>
      <trkpt lat="59.4517383" lon="17.805245">
        <ele>20.8057</ele>
        <time>2011-09-02T19:06:42Z</time>
      </trkpt>
      <trkpt lat="59.451561" lon="17.8054349">
        <ele>18.8831</ele>
        <time>2011-09-02T19:06:48Z</time>
      </trkpt>
      <trkpt lat="59.4514242" lon="17.805569">
        <ele>18.4023</ele>
        <time>2011-09-02T19:06:53Z</time>
      </trkpt>
      <trkpt lat="59.4512813" lon="17.8057218">
        <ele>17.4412</ele>
        <time>2011-09-02T19:06:58Z</time>
      </trkpt>
      <trkpt lat="59.4511931" lon="17.805966">
        <ele>18.8831</ele>
        <time>2011-09-02T19:07:02Z</time>
      </trkpt>
      <trkpt lat="59.4511813" lon="17.8060383">
        <ele>19.8444</ele>
        <time>2011-09-02T19:07:03Z</time>
      </trkpt>
      <trkpt lat="59.4510777" lon="17.8063444">
        <ele>21.2864</ele>
        <time>2011-09-02T19:07:08Z</time>
      </trkpt>
      <trkpt lat="59.4510605" lon="17.8064729">
        <ele>21.767</ele>
        <time>2011-09-02T19:07:10Z</time>
      </trkpt>
      <trkpt lat="59.4510052" lon="17.8070133">
        <ele>24.651</ele>
        <time>2011-09-02T19:07:18Z</time>
      </trkpt>
      <trkpt lat="59.4509487" lon="17.8073254">
        <ele>24.1703</ele>
        <time>2011-09-02T19:07:23Z</time>
      </trkpt>
      <trkpt lat="59.4508784" lon="17.8075577">
        <ele>24.651</ele>
        <time>2011-09-02T19:07:27Z</time>
      </trkpt>
      <trkpt lat="59.4507741" lon="17.8078414">
        <ele>23.6896</ele>
        <time>2011-09-02T19:07:32Z</time>
      </trkpt>
      <trkpt lat="59.4506968" lon="17.8080575">
        <ele>25.1317</ele>
        <time>2011-09-02T19:07:36Z</time>
      </trkpt>
      <trkpt lat="59.4505923" lon="17.8083308">
        <ele>26.0929</ele>
        <time>2011-09-02T19:07:41Z</time>
      </trkpt>
      <trkpt lat="59.4505492" lon="17.8084494">
        <ele>26.0929</ele>
        <time>2011-09-02T19:07:43Z</time>
      </trkpt>
      <trkpt lat="59.4504592" lon="17.808799">
        <ele>29.4575</ele>
        <time>2011-09-02T19:07:49Z</time>
      </trkpt>
      <trkpt lat="59.4503723" lon="17.8091359">
        <ele>32.8223</ele>
        <time>2011-09-02T19:07:55Z</time>
      </trkpt>
      <trkpt lat="59.4502985" lon="17.8094565">
        <ele>36.1868</ele>
        <time>2011-09-02T19:08:01Z</time>
      </trkpt>
      <trkpt lat="59.4502064" lon="17.8097714">
        <ele>36.6675</ele>
        <time>2011-09-02T19:08:07Z</time>
      </trkpt>
      <trkpt lat="59.4501024" lon="17.81006">
        <ele>37.1481</ele>
        <time>2011-09-02T19:08:13Z</time>
      </trkpt>
      <trkpt lat="59.4500162" lon="17.8103569">
        <ele>39.5513</ele>
        <time>2011-09-02T19:08:19Z</time>
      </trkpt>
      <trkpt lat="59.4499287" lon="17.8106672">
        <ele>40.9934</ele>
        <time>2011-09-02T19:08:25Z</time>
      </trkpt>
      <trkpt lat="59.4498586" lon="17.8108786">
        <ele>42.4354</ele>
        <time>2011-09-02T19:08:29Z</time>
      </trkpt>
      <trkpt lat="59.4497661" lon="17.81121">
        <ele>43.3966</ele>
        <time>2011-09-02T19:08:35Z</time>
      </trkpt>
      <trkpt lat="59.4496247" lon="17.8115666">
        <ele>38.5901</ele>
        <time>2011-09-02T19:08:42Z</time>
      </trkpt>
      <trkpt lat="59.4495174" lon="17.8118455">
        <ele>38.5901</ele>
        <time>2011-09-02T19:08:48Z</time>
      </trkpt>
      <trkpt lat="59.4494485" lon="17.8120517">
        <ele>39.0707</ele>
        <time>2011-09-02T19:08:52Z</time>
      </trkpt>
      <trkpt lat="59.4493603" lon="17.8123117">
        <ele>39.5513</ele>
        <time>2011-09-02T19:08:57Z</time>
      </trkpt>
      <trkpt lat="59.4492734" lon="17.8125834">
        <ele>40.0321</ele>
        <time>2011-09-02T19:09:02Z</time>
      </trkpt>
      <trkpt lat="59.449152" lon="17.812902">
        <ele>40.0321</ele>
        <time>2011-09-02T19:09:08Z</time>
      </trkpt>
      <trkpt lat="59.4490348" lon="17.8131717">
        <ele>40.9934</ele>
        <time>2011-09-02T19:09:13Z</time>
      </trkpt>
      <trkpt lat="59.448884" lon="17.8134623">
        <ele>40.9934</ele>
        <time>2011-09-02T19:09:19Z</time>
      </trkpt>
      <trkpt lat="59.4487482" lon="17.8137499">
        <ele>42.916</ele>
        <time>2011-09-02T19:09:25Z</time>
      </trkpt>
      <trkpt lat="59.4486332" lon="17.8139859">
        <ele>45.3192</ele>
        <time>2011-09-02T19:09:30Z</time>
      </trkpt>
      <trkpt lat="59.4485141" lon="17.8141384">
        <ele>46.7612</ele>
        <time>2011-09-02T19:09:34Z</time>
      </trkpt>
      <trkpt lat="59.4484907" lon="17.8141908">
        <ele>46.7612</ele>
        <time>2011-09-02T19:09:35Z</time>
      </trkpt>
      <trkpt lat="59.4483442" lon="17.8144766">
        <ele>44.358</ele>
        <time>2011-09-02T19:09:41Z</time>
      </trkpt>
      <trkpt lat="59.4481979" lon="17.8147521">
        <ele>43.8773</ele>
        <time>2011-09-02T19:09:47Z</time>
      </trkpt>
      <trkpt lat="59.4480328" lon="17.8150447">
        <ele>43.3966</ele>
        <time>2011-09-02T19:09:53Z</time>
      </trkpt>
      <trkpt lat="59.4479014" lon="17.8153547">
        <ele>42.916</ele>
        <time>2011-09-02T19:09:59Z</time>
      </trkpt>
      <trkpt lat="59.4478173" lon="17.8156889">
        <ele>44.358</ele>
        <time>2011-09-02T19:10:05Z</time>
      </trkpt>
      <trkpt lat="59.4477526" lon="17.8160902">
        <ele>42.916</ele>
        <time>2011-09-02T19:10:11Z</time>
      </trkpt>
      <trkpt lat="59.4476987" lon="17.8164844">
        <ele>42.916</ele>
        <time>2011-09-02T19:10:17Z</time>
      </trkpt>
      <trkpt lat="59.4476301" lon="17.8169552">
        <ele>41.474</ele>
        <time>2011-09-02T19:10:24Z</time>
      </trkpt>
      <trkpt lat="59.4476173" lon="17.8170257">
        <ele>41.474</ele>
        <time>2011-09-02T19:10:25Z</time>
      </trkpt>
      <trkpt lat="59.4475709" lon="17.8172977">
        <ele>39.5513</ele>
        <time>2011-09-02T19:10:29Z</time>
      </trkpt>
      <trkpt lat="59.4475092" lon="17.817624">
        <ele>39.5513</ele>
        <time>2011-09-02T19:10:34Z</time>
      </trkpt>
      <trkpt lat="59.447416" lon="17.8179948">
        <ele>38.5901</ele>
        <time>2011-09-02T19:10:40Z</time>
      </trkpt>
      <trkpt lat="59.4473832" lon="17.818093">
        <ele>38.5901</ele>
        <time>2011-09-02T19:10:42Z</time>
      </trkpt>
      <trkpt lat="59.4472872" lon="17.8179763">
        <ele>35.7061</ele>
        <time>2011-09-02T19:10:46Z</time>
      </trkpt>
      <trkpt lat="59.447318" lon="17.8176404">
        <ele>34.2642</ele>
        <time>2011-09-02T19:10:51Z</time>
      </trkpt>
      <trkpt lat="59.4475151" lon="17.8174094">
        <ele>34.2642</ele>
        <time>2011-09-02T19:10:57Z</time>
      </trkpt>
      <trkpt lat="59.4476275" lon="17.8173714">
        <ele>33.7834</ele>
        <time>2011-09-02T19:11:00Z</time>
      </trkpt>
      <trkpt lat="59.4476556" lon="17.8173692">
        <ele>33.7834</ele>
        <time>2011-09-02T19:11:01Z</time>
      </trkpt>
      <trkpt lat="59.4478962" lon="17.8172718">
        <ele>32.8223</ele>
        <time>2011-09-02T19:11:07Z</time>
      </trkpt>
      <trkpt lat="59.4480376" lon="17.8170356">
        <ele>30.8995</ele>
        <time>2011-09-02T19:11:12Z</time>
      </trkpt>
      <trkpt lat="59.4481452" lon="17.8168118">
        <ele>29.9381</ele>
        <time>2011-09-02T19:11:16Z</time>
      </trkpt>
      <trkpt lat="59.4482847" lon="17.8165415">
        <ele>32.3416</ele>
        <time>2011-09-02T19:11:21Z</time>
      </trkpt>
      <trkpt lat="59.4483125" lon="17.8164915">
        <ele>33.3029</ele>
        <time>2011-09-02T19:11:22Z</time>
      </trkpt>
      <trkpt lat="59.4484539" lon="17.8162659">
        <ele>34.2642</ele>
        <time>2011-09-02T19:11:27Z</time>
      </trkpt>
      <trkpt lat="59.448631" lon="17.8160968">
        <ele>34.2642</ele>
        <time>2011-09-02T19:11:32Z</time>
      </trkpt>
      <trkpt lat="59.448786" lon="17.8160198">
        <ele>32.8223</ele>
        <time>2011-09-02T19:11:36Z</time>
      </trkpt>
      <trkpt lat="59.4489414" lon="17.8160062">
        <ele>32.8223</ele>
        <time>2011-09-02T19:11:40Z</time>
      </trkpt>
      <trkpt lat="59.4490891" lon="17.8160182">
        <ele>32.8223</ele>
        <time>2011-09-02T19:11:44Z</time>
      </trkpt>
      <trkpt lat="59.4492492" lon="17.816117">
        <ele>32.8223</ele>
        <time>2011-09-02T19:11:49Z</time>
      </trkpt>
      <trkpt lat="59.4493852" lon="17.816188">
        <ele>31.8607</ele>
        <time>2011-09-02T19:11:54Z</time>
      </trkpt>
      <trkpt lat="59.4494351" lon="17.8163731">
        <ele>30.8995</ele>
        <time>2011-09-02T19:11:58Z</time>
      </trkpt>
      <trkpt lat="59.4494098" lon="17.8165114">
        <ele>30.4188</ele>
        <time>2011-09-02T19:12:00Z</time>
      </trkpt>
      <trkpt lat="59.4493142" lon="17.816894">
        <ele>28.9769</ele>
        <time>2011-09-02T19:12:06Z</time>
      </trkpt>
      <trkpt lat="59.4492439" lon="17.8170886">
        <ele>28.9769</ele>
        <time>2011-09-02T19:12:09Z</time>
      </trkpt>
      <trkpt lat="59.4491589" lon="17.8174887">
        <ele>28.4962</ele>
        <time>2011-09-02T19:12:15Z</time>
      </trkpt>
      <trkpt lat="59.4491008" lon="17.8178721">
        <ele>29.4575</ele>
        <time>2011-09-02T19:12:21Z</time>
      </trkpt>
      <trkpt lat="59.4490661" lon="17.8181733">
        <ele>30.8995</ele>
        <time>2011-09-02T19:12:26Z</time>
      </trkpt>
      <trkpt lat="59.4490216" lon="17.8184836">
        <ele>31.8607</ele>
        <time>2011-09-02T19:12:31Z</time>
      </trkpt>
      <trkpt lat="59.4489821" lon="17.8187802">
        <ele>34.7449</ele>
        <time>2011-09-02T19:12:36Z</time>
      </trkpt>
      <trkpt lat="59.4489352" lon="17.8191206">
        <ele>35.2255</ele>
        <time>2011-09-02T19:12:42Z</time>
      </trkpt>
      <trkpt lat="59.4489052" lon="17.8194376">
        <ele>35.2255</ele>
        <time>2011-09-02T19:12:47Z</time>
      </trkpt>
      <trkpt lat="59.4488646" lon="17.8198115">
        <ele>36.1868</ele>
        <time>2011-09-02T19:12:53Z</time>
      </trkpt>
      <trkpt lat="59.4488466" lon="17.8200598">
        <ele>36.6675</ele>
        <time>2011-09-02T19:12:57Z</time>
      </trkpt>
      <trkpt lat="59.4488103" lon="17.8204648">
        <ele>33.7834</ele>
        <time>2011-09-02T19:13:03Z</time>
      </trkpt>
      <trkpt lat="59.4487623" lon="17.8208794">
        <ele>31.3801</ele>
        <time>2011-09-02T19:13:09Z</time>
      </trkpt>
      <trkpt lat="59.4487431" lon="17.821223">
        <ele>32.8223</ele>
        <time>2011-09-02T19:13:14Z</time>
      </trkpt>
      <trkpt lat="59.448748" lon="17.8214682">
        <ele>33.7834</ele>
        <time>2011-09-02T19:13:18Z</time>
      </trkpt>
      <trkpt lat="59.4487549" lon="17.8216851">
        <ele>31.3801</ele>
        <time>2011-09-02T19:13:22Z</time>
      </trkpt>
      <trkpt lat="59.4487553" lon="17.821949">
        <ele>31.3801</ele>
        <time>2011-09-02T19:13:26Z</time>
      </trkpt>
      <trkpt lat="59.4487544" lon="17.8223104">
        <ele>31.8607</ele>
        <time>2011-09-02T19:13:31Z</time>
      </trkpt>
      <trkpt lat="59.4487798" lon="17.822669">
        <ele>30.8995</ele>
        <time>2011-09-02T19:13:36Z</time>
      </trkpt>
      <trkpt lat="59.448787" lon="17.8231201">
        <ele>30.4188</ele>
        <time>2011-09-02T19:13:42Z</time>
      </trkpt>
      <trkpt lat="59.4488415" lon="17.8233243">
        <ele>29.4575</ele>
        <time>2011-09-02T19:13:46Z</time>
      </trkpt>
      <trkpt lat="59.4489785" lon="17.8234815">
        <ele>29.9381</ele>
        <time>2011-09-02T19:13:51Z</time>
      </trkpt>
      <trkpt lat="59.449146" lon="17.823524">
        <ele>31.3801</ele>
        <time>2011-09-02T19:13:56Z</time>
      </trkpt>
      <trkpt lat="59.4493143" lon="17.8235212">
        <ele>32.8223</ele>
        <time>2011-09-02T19:14:01Z</time>
      </trkpt>
      <trkpt lat="59.4495221" lon="17.823423">
        <ele>34.7449</ele>
        <time>2011-09-02T19:14:07Z</time>
      </trkpt>
      <trkpt lat="59.4497034" lon="17.823372">
        <ele>36.6675</ele>
        <time>2011-09-02T19:14:12Z</time>
      </trkpt>
      <trkpt lat="59.4498511" lon="17.8233626">
        <ele>38.1094</ele>
        <time>2011-09-02T19:14:16Z</time>
      </trkpt>
      <trkpt lat="59.4500479" lon="17.8233552">
        <ele>38.1094</ele>
        <time>2011-09-02T19:14:21Z</time>
      </trkpt>
      <trkpt lat="59.450211" lon="17.8232916">
        <ele>39.5513</ele>
        <time>2011-09-02T19:14:26Z</time>
      </trkpt>
      <trkpt lat="59.4503784" lon="17.8232277">
        <ele>41.9547</ele>
        <time>2011-09-02T19:14:31Z</time>
      </trkpt>
      <trkpt lat="59.4505488" lon="17.8231423">
        <ele>44.8386</ele>
        <time>2011-09-02T19:14:36Z</time>
      </trkpt>
      <trkpt lat="59.4506855" lon="17.8231076">
        <ele>45.7999</ele>
        <time>2011-09-02T19:14:40Z</time>
      </trkpt>
      <trkpt lat="59.4507161" lon="17.8231034">
        <ele>45.7999</ele>
        <time>2011-09-02T19:14:41Z</time>
      </trkpt>
      <trkpt lat="59.4508558" lon="17.8231295">
        <ele>41.9547</ele>
        <time>2011-09-02T19:14:45Z</time>
      </trkpt>
      <trkpt lat="59.4510044" lon="17.8231735">
        <ele>39.0707</ele>
        <time>2011-09-02T19:14:49Z</time>
      </trkpt>
      <trkpt lat="59.4512388" lon="17.8232907">
        <ele>35.7061</ele>
        <time>2011-09-02T19:14:55Z</time>
      </trkpt>
      <trkpt lat="59.4514206" lon="17.823375">
        <ele>35.2255</ele>
        <time>2011-09-02T19:15:00Z</time>
      </trkpt>
      <trkpt lat="59.4515895" lon="17.8234216">
        <ele>35.7061</ele>
        <time>2011-09-02T19:15:05Z</time>
      </trkpt>
      <trkpt lat="59.4517976" lon="17.8233854">
        <ele>36.6675</ele>
        <time>2011-09-02T19:15:11Z</time>
      </trkpt>
      <trkpt lat="59.451964" lon="17.8233051">
        <ele>37.1481</ele>
        <time>2011-09-02T19:15:16Z</time>
      </trkpt>
      <trkpt lat="59.4521515" lon="17.8232746">
        <ele>39.0707</ele>
        <time>2011-09-02T19:15:21Z</time>
      </trkpt>
      <trkpt lat="59.4523538" lon="17.8232318">
        <ele>38.5901</ele>
        <time>2011-09-02T19:15:27Z</time>
      </trkpt>
      <trkpt lat="59.452539" lon="17.8231831">
        <ele>37.1481</ele>
        <time>2011-09-02T19:15:32Z</time>
      </trkpt>
      <trkpt lat="59.4526606" lon="17.8230483">
        <ele>34.7449</ele>
        <time>2011-09-02T19:15:36Z</time>
      </trkpt>
      <trkpt lat="59.4526966" lon="17.8227954">
        <ele>34.7449</ele>
        <time>2011-09-02T19:15:40Z</time>
      </trkpt>
      <trkpt lat="59.452773" lon="17.8225769">
        <ele>33.7834</ele>
        <time>2011-09-02T19:15:44Z</time>
      </trkpt>
      <trkpt lat="59.4529638" lon="17.8223368">
        <ele>34.7449</ele>
        <time>2011-09-02T19:15:50Z</time>
      </trkpt>
      <trkpt lat="59.4530845" lon="17.8221987">
        <ele>35.2255</ele>
        <time>2011-09-02T19:15:54Z</time>
      </trkpt>
      <trkpt lat="59.4532134" lon="17.8221337">
        <ele>36.1868</ele>
        <time>2011-09-02T19:15:58Z</time>
      </trkpt>
      <trkpt lat="59.4534055" lon="17.8221265">
        <ele>36.1868</ele>
        <time>2011-09-02T19:16:03Z</time>
      </trkpt>
      <trkpt lat="59.4535962" lon="17.8221681">
        <ele>33.7834</ele>
        <time>2011-09-02T19:16:08Z</time>
      </trkpt>
      <trkpt lat="59.4536587" lon="17.8221634">
        <ele>33.3029</ele>
        <time>2011-09-02T19:16:10Z</time>
      </trkpt>
      <trkpt lat="59.453821" lon="17.8220128">
        <ele>34.7449</ele>
        <time>2011-09-02T19:16:15Z</time>
      </trkpt>
      <trkpt lat="59.4539716" lon="17.8220198">
        <ele>35.7061</ele>
        <time>2011-09-02T19:16:19Z</time>
      </trkpt>
      <trkpt lat="59.4541136" lon="17.8220904">
        <ele>36.1868</ele>
        <time>2011-09-02T19:16:23Z</time>
      </trkpt>
      <trkpt lat="59.4542591" lon="17.8221673">
        <ele>38.1094</ele>
        <time>2011-09-02T19:16:27Z</time>
      </trkpt>
      <trkpt lat="59.4544561" lon="17.8222406">
        <ele>40.0321</ele>
        <time>2011-09-02T19:16:32Z</time>
      </trkpt>
      <trkpt lat="59.4546539" lon="17.8223412">
        <ele>40.5128</ele>
        <time>2011-09-02T19:16:38Z</time>
      </trkpt>
      <trkpt lat="59.4548434" lon="17.8224425">
        <ele>40.0321</ele>
        <time>2011-09-02T19:16:44Z</time>
      </trkpt>
      <trkpt lat="59.4550323" lon="17.8225861">
        <ele>39.5513</ele>
        <time>2011-09-02T19:16:50Z</time>
      </trkpt>
      <trkpt lat="59.4552198" lon="17.8226773">
        <ele>35.7061</ele>
        <time>2011-09-02T19:16:56Z</time>
      </trkpt>
      <trkpt lat="59.4553952" lon="17.8227753">
        <ele>34.7449</ele>
        <time>2011-09-02T19:17:01Z</time>
      </trkpt>
      <trkpt lat="59.4555832" lon="17.8229237">
        <ele>33.7834</ele>
        <time>2011-09-02T19:17:07Z</time>
      </trkpt>
      <trkpt lat="59.4557916" lon="17.8230218">
        <ele>33.3029</ele>
        <time>2011-09-02T19:17:13Z</time>
      </trkpt>
      <trkpt lat="59.4559554" lon="17.8231097">
        <ele>33.3029</ele>
        <time>2011-09-02T19:17:18Z</time>
      </trkpt>
      <trkpt lat="59.4561008" lon="17.82318">
        <ele>32.8223</ele>
        <time>2011-09-02T19:17:22Z</time>
      </trkpt>
      <trkpt lat="59.4563254" lon="17.8233069">
        <ele>33.3029</ele>
        <time>2011-09-02T19:17:28Z</time>
      </trkpt>
      <trkpt lat="59.4564748" lon="17.8234147">
        <ele>33.7834</ele>
        <time>2011-09-02T19:17:32Z</time>
      </trkpt>
      <trkpt lat="59.4566622" lon="17.8234805">
        <ele>33.7834</ele>
        <time>2011-09-02T19:17:37Z</time>
      </trkpt>
      <trkpt lat="59.4567332" lon="17.8234776">
        <ele>33.3029</ele>
        <time>2011-09-02T19:17:39Z</time>
      </trkpt>
      <trkpt lat="59.4567971" lon="17.8232854">
        <ele>33.7834</ele>
        <time>2011-09-02T19:17:43Z</time>
      </trkpt>
      <trkpt lat="59.4568317" lon="17.8230264">
        <ele>34.7449</ele>
        <time>2011-09-02T19:17:47Z</time>
      </trkpt>
      <trkpt lat="59.4568789" lon="17.8226748">
        <ele>34.2642</ele>
        <time>2011-09-02T19:17:52Z</time>
      </trkpt>
      <trkpt lat="59.4569212" lon="17.8224141">
        <ele>33.7834</ele>
        <time>2011-09-02T19:17:56Z</time>
      </trkpt>
      <trkpt lat="59.4569923" lon="17.8220115">
        <ele>32.8223</ele>
        <time>2011-09-02T19:18:02Z</time>
      </trkpt>
      <trkpt lat="59.4570545" lon="17.8216603">
        <ele>31.8607</ele>
        <time>2011-09-02T19:18:07Z</time>
      </trkpt>
      <trkpt lat="59.4571197" lon="17.8213158">
        <ele>31.8607</ele>
        <time>2011-09-02T19:18:12Z</time>
      </trkpt>
      <trkpt lat="59.4571974" lon="17.8209335">
        <ele>30.8995</ele>
        <time>2011-09-02T19:18:18Z</time>
      </trkpt>
      <trkpt lat="59.4572544" lon="17.8206255">
        <ele>30.8995</ele>
        <time>2011-09-02T19:18:23Z</time>
      </trkpt>
      <trkpt lat="59.457318" lon="17.8202924">
        <ele>30.8995</ele>
        <time>2011-09-02T19:18:28Z</time>
      </trkpt>
      <trkpt lat="59.4573856" lon="17.8199831">
        <ele>28.9769</ele>
        <time>2011-09-02T19:18:33Z</time>
      </trkpt>
      <trkpt lat="59.4574892" lon="17.8197014">
        <ele>27.0543</ele>
        <time>2011-09-02T19:18:38Z</time>
      </trkpt>
      <trkpt lat="59.4576114" lon="17.8194354">
        <ele>28.4962</ele>
        <time>2011-09-02T19:18:43Z</time>
      </trkpt>
      <trkpt lat="59.457615" lon="17.8190272">
        <ele>28.9769</ele>
        <time>2011-09-02T19:18:49Z</time>
      </trkpt>
      <trkpt lat="59.457604" lon="17.8188275">
        <ele>30.4188</ele>
        <time>2011-09-02T19:18:52Z</time>
      </trkpt>
      <trkpt lat="59.4575978" lon="17.8186969">
        <ele>29.9381</ele>
        <time>2011-09-02T19:18:54Z</time>
      </trkpt>
      <trkpt lat="59.4576134" lon="17.8182538">
        <ele>30.4188</ele>
        <time>2011-09-02T19:19:01Z</time>
      </trkpt>
      <trkpt lat="59.4576208" lon="17.8181913">
        <ele>30.4188</ele>
        <time>2011-09-02T19:19:02Z</time>
      </trkpt>
      <trkpt lat="59.4577288" lon="17.8180343">
        <ele>29.9381</ele>
        <time>2011-09-02T19:19:06Z</time>
      </trkpt>
      <trkpt lat="59.4578663" lon="17.8181201">
        <ele>29.4575</ele>
        <time>2011-09-02T19:19:10Z</time>
      </trkpt>
      <trkpt lat="59.4580444" lon="17.8182918">
        <ele>30.4188</ele>
        <time>2011-09-02T19:19:16Z</time>
      </trkpt>
      <trkpt lat="59.4581894" lon="17.8183797">
        <ele>30.8995</ele>
        <time>2011-09-02T19:19:21Z</time>
      </trkpt>
      <trkpt lat="59.4583215" lon="17.8185264">
        <ele>30.8995</ele>
        <time>2011-09-02T19:19:26Z</time>
      </trkpt>
      <trkpt lat="59.4584888" lon="17.818718">
        <ele>30.8995</ele>
        <time>2011-09-02T19:19:32Z</time>
      </trkpt>
      <trkpt lat="59.4586505" lon="17.8188969">
        <ele>32.3416</ele>
        <time>2011-09-02T19:19:38Z</time>
      </trkpt>
      <trkpt lat="59.4588228" lon="17.8190795">
        <ele>34.2642</ele>
        <time>2011-09-02T19:19:44Z</time>
      </trkpt>
      <trkpt lat="59.4589887" lon="17.819244">
        <ele>35.2255</ele>
        <time>2011-09-02T19:19:50Z</time>
      </trkpt>
      <trkpt lat="59.4591225" lon="17.8193872">
        <ele>34.7449</ele>
        <time>2011-09-02T19:19:55Z</time>
      </trkpt>
      <trkpt lat="59.4592669" lon="17.8195551">
        <ele>34.7449</ele>
        <time>2011-09-02T19:20:00Z</time>
      </trkpt>
      <trkpt lat="59.4594549" lon="17.819626">
        <ele>34.7449</ele>
        <time>2011-09-02T19:20:06Z</time>
      </trkpt>
      <trkpt lat="59.45957" lon="17.8197241">
        <ele>33.7834</ele>
        <time>2011-09-02T19:20:10Z</time>
      </trkpt>
      <trkpt lat="59.4597383" lon="17.8199126">
        <ele>33.3029</ele>
        <time>2011-09-02T19:20:16Z</time>
      </trkpt>
      <trkpt lat="59.4598662" lon="17.8200766">
        <ele>32.8223</ele>
        <time>2011-09-02T19:20:21Z</time>
      </trkpt>
      <trkpt lat="59.4600699" lon="17.820298">
        <ele>33.7834</ele>
        <time>2011-09-02T19:20:28Z</time>
      </trkpt>
      <trkpt lat="59.4602345" lon="17.8205004">
        <ele>35.2255</ele>
        <time>2011-09-02T19:20:34Z</time>
      </trkpt>
      <trkpt lat="59.4604282" lon="17.8206905">
        <ele>36.1868</ele>
        <time>2011-09-02T19:20:40Z</time>
      </trkpt>
      <trkpt lat="59.4605629" lon="17.820858">
        <ele>36.1868</ele>
        <time>2011-09-02T19:20:45Z</time>
      </trkpt>
      <trkpt lat="59.4607031" lon="17.8210091">
        <ele>37.1481</ele>
        <time>2011-09-02T19:20:50Z</time>
      </trkpt>
      <trkpt lat="59.4608898" lon="17.8211951">
        <ele>36.6675</ele>
        <time>2011-09-02T19:20:57Z</time>
      </trkpt>
      <trkpt lat="59.4610073" lon="17.821317">
        <ele>38.1094</ele>
        <time>2011-09-02T19:21:01Z</time>
      </trkpt>
      <trkpt lat="59.461175" lon="17.8215127">
        <ele>39.5513</ele>
        <time>2011-09-02T19:21:07Z</time>
      </trkpt>
      <trkpt lat="59.461324" lon="17.8216718">
        <ele>40.0321</ele>
        <time>2011-09-02T19:21:12Z</time>
      </trkpt>
      <trkpt lat="59.4614669" lon="17.821827">
        <ele>39.0707</ele>
        <time>2011-09-02T19:21:17Z</time>
      </trkpt>
      <trkpt lat="59.4616073" lon="17.8219711">
        <ele>39.0707</ele>
        <time>2011-09-02T19:21:22Z</time>
      </trkpt>
      <trkpt lat="59.4617839" lon="17.8221908">
        <ele>39.5513</ele>
        <time>2011-09-02T19:21:28Z</time>
      </trkpt>
      <trkpt lat="59.461965" lon="17.8224035">
        <ele>40.5128</ele>
        <time>2011-09-02T19:21:34Z</time>
      </trkpt>
      <trkpt lat="59.4621428" lon="17.8226675">
        <ele>40.5128</ele>
        <time>2011-09-02T19:21:40Z</time>
      </trkpt>
      <trkpt lat="59.462259" lon="17.8229614">
        <ele>40.9934</ele>
        <time>2011-09-02T19:21:45Z</time>
      </trkpt>
      <trkpt lat="59.4622945" lon="17.823086">
        <ele>40.9934</ele>
        <time>2011-09-02T19:21:47Z</time>
      </trkpt>
      <trkpt lat="59.4624076" lon="17.8231273">
        <ele>40.5128</ele>
        <time>2011-09-02T19:21:51Z</time>
      </trkpt>
      <trkpt lat="59.4624623" lon="17.8230585">
        <ele>40.9934</ele>
        <time>2011-09-02T19:21:53Z</time>
      </trkpt>
      <trkpt lat="59.4626004" lon="17.8227983">
        <ele>40.9934</ele>
        <time>2011-09-02T19:21:59Z</time>
      </trkpt>
      <trkpt lat="59.4627007" lon="17.8226387">
        <ele>41.9547</ele>
        <time>2011-09-02T19:22:04Z</time>
      </trkpt>
      <trkpt lat="59.4628035" lon="17.8224235">
        <ele>43.8773</ele>
        <time>2011-09-02T19:22:09Z</time>
      </trkpt>
      <trkpt lat="59.4628881" lon="17.8221893">
        <ele>46.2806</ele>
        <time>2011-09-02T19:22:14Z</time>
      </trkpt>
      <trkpt lat="59.4629583" lon="17.8219826">
        <ele>47.7225</ele>
        <time>2011-09-02T19:22:19Z</time>
      </trkpt>
      <trkpt lat="59.4630287" lon="17.8217664">
        <ele>49.1646</ele>
        <time>2011-09-02T19:22:24Z</time>
      </trkpt>
      <trkpt lat="59.4631008" lon="17.8216112">
        <ele>49.6453</ele>
        <time>2011-09-02T19:22:28Z</time>
      </trkpt>
      <trkpt lat="59.4632041" lon="17.8213521">
        <ele>49.6453</ele>
        <time>2011-09-02T19:22:34Z</time>
      </trkpt>
      <trkpt lat="59.4632882" lon="17.8211573">
        <ele>47.2418</ele>
        <time>2011-09-02T19:22:38Z</time>
      </trkpt>
      <trkpt lat="59.4633681" lon="17.8208627">
        <ele>45.3192</ele>
        <time>2011-09-02T19:22:43Z</time>
      </trkpt>
      <trkpt lat="59.4634476" lon="17.8205616">
        <ele>44.8386</ele>
        <time>2011-09-02T19:22:48Z</time>
      </trkpt>
      <trkpt lat="59.4635219" lon="17.8202484">
        <ele>44.8386</ele>
        <time>2011-09-02T19:22:53Z</time>
      </trkpt>
      <trkpt lat="59.4635954" lon="17.8199635">
        <ele>43.3966</ele>
        <time>2011-09-02T19:22:58Z</time>
      </trkpt>
      <trkpt lat="59.4636425" lon="17.819636">
        <ele>43.8773</ele>
        <time>2011-09-02T19:23:03Z</time>
      </trkpt>
      <trkpt lat="59.463689" lon="17.8192993">
        <ele>45.7999</ele>
        <time>2011-09-02T19:23:08Z</time>
      </trkpt>
      <trkpt lat="59.4637337" lon="17.8190292">
        <ele>46.2806</ele>
        <time>2011-09-02T19:23:12Z</time>
      </trkpt>
      <trkpt lat="59.4637783" lon="17.8187666">
        <ele>47.2418</ele>
        <time>2011-09-02T19:23:16Z</time>
      </trkpt>
      <trkpt lat="59.4638559" lon="17.8183778">
        <ele>46.7612</ele>
        <time>2011-09-02T19:23:22Z</time>
      </trkpt>
      <trkpt lat="59.4639236" lon="17.8179946">
        <ele>47.2418</ele>
        <time>2011-09-02T19:23:28Z</time>
      </trkpt>
      <trkpt lat="59.4639355" lon="17.817939">
        <ele>47.2418</ele>
        <time>2011-09-02T19:23:29Z</time>
      </trkpt>
      <trkpt lat="59.4639952" lon="17.8176395">
        <ele>46.2806</ele>
        <time>2011-09-02T19:23:34Z</time>
      </trkpt>
      <trkpt lat="59.4640417" lon="17.8172506">
        <ele>45.3192</ele>
        <time>2011-09-02T19:23:40Z</time>
      </trkpt>
      <trkpt lat="59.4640979" lon="17.8169076">
        <ele>46.2806</ele>
        <time>2011-09-02T19:23:45Z</time>
      </trkpt>
      <trkpt lat="59.4641528" lon="17.8165832">
        <ele>45.3192</ele>
        <time>2011-09-02T19:23:50Z</time>
      </trkpt>
      <trkpt lat="59.46422" lon="17.8163372">
        <ele>44.8386</ele>
        <time>2011-09-02T19:23:54Z</time>
      </trkpt>
      <trkpt lat="59.4643599" lon="17.8160836">
        <ele>45.7999</ele>
        <time>2011-09-02T19:23:59Z</time>
      </trkpt>
      <trkpt lat="59.4644582" lon="17.8157057">
        <ele>46.7612</ele>
        <time>2011-09-02T19:24:05Z</time>
      </trkpt>
      <trkpt lat="59.4644854" lon="17.8155608">
        <ele>47.2418</ele>
        <time>2011-09-02T19:24:07Z</time>
      </trkpt>
      <trkpt lat="59.4646241" lon="17.8151312">
        <ele>47.7225</ele>
        <time>2011-09-02T19:24:14Z</time>
      </trkpt>
      <trkpt lat="59.4647401" lon="17.8148294">
        <ele>45.7999</ele>
        <time>2011-09-02T19:24:19Z</time>
      </trkpt>
      <trkpt lat="59.4648707" lon="17.814561">
        <ele>44.358</ele>
        <time>2011-09-02T19:24:24Z</time>
      </trkpt>
      <trkpt lat="59.4649939" lon="17.8141924">
        <ele>42.916</ele>
        <time>2011-09-02T19:24:30Z</time>
      </trkpt>
      <trkpt lat="59.4650988" lon="17.8138948">
        <ele>41.9547</ele>
        <time>2011-09-02T19:24:35Z</time>
      </trkpt>
      <trkpt lat="59.4652096" lon="17.8135747">
        <ele>41.9547</ele>
        <time>2011-09-02T19:24:40Z</time>
      </trkpt>
      <trkpt lat="59.4653224" lon="17.8132874">
        <ele>41.9547</ele>
        <time>2011-09-02T19:24:45Z</time>
      </trkpt>
      <trkpt lat="59.4655043" lon="17.813264">
        <ele>41.9547</ele>
        <time>2011-09-02T19:24:50Z</time>
      </trkpt>
      <trkpt lat="59.465654" lon="17.8132634">
        <ele>41.474</ele>
        <time>2011-09-02T19:24:54Z</time>
      </trkpt>
      <trkpt lat="59.465788" lon="17.8133153">
        <ele>41.474</ele>
        <time>2011-09-02T19:24:58Z</time>
      </trkpt>
      <trkpt lat="59.4659823" lon="17.8134011">
        <ele>43.3966</ele>
        <time>2011-09-02T19:25:04Z</time>
      </trkpt>
      <trkpt lat="59.4661757" lon="17.8134769">
        <ele>46.2806</ele>
        <time>2011-09-02T19:25:10Z</time>
      </trkpt>
      <trkpt lat="59.4663064" lon="17.8135373">
        <ele>46.7612</ele>
        <time>2011-09-02T19:25:14Z</time>
      </trkpt>
      <trkpt lat="59.4664334" lon="17.8135928">
        <ele>47.7225</ele>
        <time>2011-09-02T19:25:18Z</time>
      </trkpt>
      <trkpt lat="59.4666502" lon="17.8136913">
        <ele>47.2418</ele>
        <time>2011-09-02T19:25:24Z</time>
      </trkpt>
      <trkpt lat="59.4668816" lon="17.813902">
        <ele>46.7612</ele>
        <time>2011-09-02T19:25:31Z</time>
      </trkpt>
      <trkpt lat="59.4670734" lon="17.8142512">
        <ele>45.7999</ele>
        <time>2011-09-02T19:25:38Z</time>
      </trkpt>
      <trkpt lat="59.4672024" lon="17.8145041">
        <ele>45.3192</ele>
        <time>2011-09-02T19:25:43Z</time>
      </trkpt>
      <trkpt lat="59.4673209" lon="17.8147412">
        <ele>45.7999</ele>
        <time>2011-09-02T19:25:48Z</time>
      </trkpt>
      <trkpt lat="59.4673421" lon="17.8147879">
        <ele>45.7999</ele>
        <time>2011-09-02T19:25:49Z</time>
      </trkpt>
      <trkpt lat="59.4675297" lon="17.8148382">
        <ele>43.3966</ele>
        <time>2011-09-02T19:25:55Z</time>
      </trkpt>
      <trkpt lat="59.4675836" lon="17.8147574">
        <ele>42.916</ele>
        <time>2011-09-02T19:25:57Z</time>
      </trkpt>
      <trkpt lat="59.4677878" lon="17.814426">
        <ele>40.5128</ele>
        <time>2011-09-02T19:26:04Z</time>
      </trkpt>
      <trkpt lat="59.4679244" lon="17.8141768">
        <ele>39.5513</ele>
        <time>2011-09-02T19:26:09Z</time>
      </trkpt>
      <trkpt lat="59.4680501" lon="17.8139238">
        <ele>39.0707</ele>
        <time>2011-09-02T19:26:14Z</time>
      </trkpt>
      <trkpt lat="59.4681383" lon="17.8136991">
        <ele>40.0321</ele>
        <time>2011-09-02T19:26:18Z</time>
      </trkpt>
      <trkpt lat="59.4682589" lon="17.8133105">
        <ele>39.0707</ele>
        <time>2011-09-02T19:26:24Z</time>
      </trkpt>
      <trkpt lat="59.4683106" lon="17.8129921">
        <ele>40.5128</ele>
        <time>2011-09-02T19:26:28Z</time>
      </trkpt>
      <trkpt lat="59.4683985" lon="17.812585">
        <ele>40.5128</ele>
        <time>2011-09-02T19:26:34Z</time>
      </trkpt>
      <trkpt lat="59.4684502" lon="17.8122289">
        <ele>40.9934</ele>
        <time>2011-09-02T19:26:39Z</time>
      </trkpt>
      <trkpt lat="59.4684926" lon="17.8119368">
        <ele>40.0321</ele>
        <time>2011-09-02T19:26:43Z</time>
      </trkpt>
      <trkpt lat="59.4685351" lon="17.811655">
        <ele>39.5513</ele>
        <time>2011-09-02T19:26:47Z</time>
      </trkpt>
      <trkpt lat="59.4685911" lon="17.8111936">
        <ele>39.0707</ele>
        <time>2011-09-02T19:26:53Z</time>
      </trkpt>
      <trkpt lat="59.4686287" lon="17.8108051">
        <ele>39.0707</ele>
        <time>2011-09-02T19:26:58Z</time>
      </trkpt>
      <trkpt lat="59.4686394" lon="17.8104243">
        <ele>38.1094</ele>
        <time>2011-09-02T19:27:03Z</time>
      </trkpt>
      <trkpt lat="59.468566" lon="17.8100062">
        <ele>36.1868</ele>
        <time>2011-09-02T19:27:09Z</time>
      </trkpt>
      <trkpt lat="59.4685375" lon="17.8097028">
        <ele>35.7061</ele>
        <time>2011-09-02T19:27:13Z</time>
      </trkpt>
      <trkpt lat="59.4685422" lon="17.8096289">
        <ele>35.2255</ele>
        <time>2011-09-02T19:27:14Z</time>
      </trkpt>
      <trkpt lat="59.468634" lon="17.809341">
        <ele>34.7449</ele>
        <time>2011-09-02T19:27:18Z</time>
      </trkpt>
      <trkpt lat="59.468692" lon="17.8092233">
        <ele>34.7449</ele>
        <time>2011-09-02T19:27:20Z</time>
      </trkpt>
      <trkpt lat="59.4688066" lon="17.8088987">
        <ele>34.2642</ele>
        <time>2011-09-02T19:27:25Z</time>
      </trkpt>
      <trkpt lat="59.4688514" lon="17.8087106">
        <ele>33.7834</ele>
        <time>2011-09-02T19:27:28Z</time>
      </trkpt>
      <trkpt lat="59.4688936" lon="17.8084512">
        <ele>34.2642</ele>
        <time>2011-09-02T19:27:32Z</time>
      </trkpt>
      <trkpt lat="59.468906" lon="17.8083801">
        <ele>34.2642</ele>
        <time>2011-09-02T19:27:33Z</time>
      </trkpt>
      <trkpt lat="59.4689501" lon="17.808113">
        <ele>34.2642</ele>
        <time>2011-09-02T19:27:37Z</time>
      </trkpt>
      <trkpt lat="59.4689661" lon="17.8079689">
        <ele>34.2642</ele>
        <time>2011-09-02T19:27:39Z</time>
      </trkpt>
      <trkpt lat="59.4688558" lon="17.8076855">
        <ele>33.3029</ele>
        <time>2011-09-02T19:27:44Z</time>
      </trkpt>
      <trkpt lat="59.4688266" lon="17.8076605">
        <ele>33.3029</ele>
        <time>2011-09-02T19:27:45Z</time>
      </trkpt>
      <trkpt lat="59.4686093" lon="17.8075358">
        <ele>30.8995</ele>
        <time>2011-09-02T19:27:51Z</time>
      </trkpt>
      <trkpt lat="59.4684306" lon="17.8074809">
        <ele>29.4575</ele>
        <time>2011-09-02T19:27:56Z</time>
      </trkpt>
      <trkpt lat="59.4682455" lon="17.8075265">
        <ele>28.4962</ele>
        <time>2011-09-02T19:28:01Z</time>
      </trkpt>
      <trkpt lat="59.4680612" lon="17.807643">
        <ele>27.5349</ele>
        <time>2011-09-02T19:28:06Z</time>
      </trkpt>
      <trkpt lat="59.4678696" lon="17.80777">
        <ele>25.6123</ele>
        <time>2011-09-02T19:28:11Z</time>
      </trkpt>
      <trkpt lat="59.4676852" lon="17.8078757">
        <ele>27.0543</ele>
        <time>2011-09-02T19:28:16Z</time>
      </trkpt>
      <trkpt lat="59.467554" lon="17.8079892">
        <ele>28.4962</ele>
        <time>2011-09-02T19:28:20Z</time>
      </trkpt>
      <trkpt lat="59.4674078" lon="17.8081864">
        <ele>29.9381</ele>
        <time>2011-09-02T19:28:25Z</time>
      </trkpt>
      <trkpt lat="59.4672195" lon="17.8084456">
        <ele>34.7449</ele>
        <time>2011-09-02T19:28:32Z</time>
      </trkpt>
      <trkpt lat="59.4670884" lon="17.808617">
        <ele>36.6675</ele>
        <time>2011-09-02T19:28:37Z</time>
      </trkpt>
      <trkpt lat="59.4669504" lon="17.8087428">
        <ele>33.7834</ele>
        <time>2011-09-02T19:28:42Z</time>
      </trkpt>
      <trkpt lat="59.4668391" lon="17.8088566">
        <ele>34.2642</ele>
        <time>2011-09-02T19:28:46Z</time>
      </trkpt>
      <trkpt lat="59.4666931" lon="17.8089635">
        <ele>35.7061</ele>
        <time>2011-09-02T19:28:51Z</time>
      </trkpt>
      <trkpt lat="59.466519" lon="17.8089863">
        <ele>36.6675</ele>
        <time>2011-09-02T19:28:56Z</time>
      </trkpt>
      <trkpt lat="59.466371" lon="17.8089738">
        <ele>36.6675</ele>
        <time>2011-09-02T19:29:01Z</time>
      </trkpt>
      <trkpt lat="59.4661972" lon="17.8089567">
        <ele>34.7449</ele>
        <time>2011-09-02T19:29:06Z</time>
      </trkpt>
      <trkpt lat="59.4660477" lon="17.8089045">
        <ele>30.4188</ele>
        <time>2011-09-02T19:29:10Z</time>
      </trkpt>
      <trkpt lat="59.465901" lon="17.8088429">
        <ele>29.4575</ele>
        <time>2011-09-02T19:29:14Z</time>
      </trkpt>
      <trkpt lat="59.4657182" lon="17.8088065">
        <ele>30.4188</ele>
        <time>2011-09-02T19:29:19Z</time>
      </trkpt>
      <trkpt lat="59.4655669" lon="17.8088189">
        <ele>30.4188</ele>
        <time>2011-09-02T19:29:23Z</time>
      </trkpt>
      <trkpt lat="59.4654151" lon="17.8088261">
        <ele>30.4188</ele>
        <time>2011-09-02T19:29:27Z</time>
      </trkpt>
      <trkpt lat="59.4652473" lon="17.8087291">
        <ele>29.9381</ele>
        <time>2011-09-02T19:29:32Z</time>
      </trkpt>
      <trkpt lat="59.4651376" lon="17.808622">
        <ele>30.4188</ele>
        <time>2011-09-02T19:29:35Z</time>
      </trkpt>
      <trkpt lat="59.4649778" lon="17.8084408">
        <ele>31.8607</ele>
        <time>2011-09-02T19:29:40Z</time>
      </trkpt>
      <trkpt lat="59.4648624" lon="17.8084044">
        <ele>33.7834</ele>
        <time>2011-09-02T19:29:44Z</time>
      </trkpt>
      <trkpt lat="59.4647211" lon="17.8084341">
        <ele>32.3416</ele>
        <time>2011-09-02T19:29:48Z</time>
      </trkpt>
      <trkpt lat="59.4645283" lon="17.8084368">
        <ele>33.3029</ele>
        <time>2011-09-02T19:29:54Z</time>
      </trkpt>
      <trkpt lat="59.4643569" lon="17.8083429">
        <ele>34.7449</ele>
        <time>2011-09-02T19:29:59Z</time>
      </trkpt>
      <trkpt lat="59.4642304" lon="17.8082179">
        <ele>35.7061</ele>
        <time>2011-09-02T19:30:03Z</time>
      </trkpt>
      <trkpt lat="59.4640812" lon="17.8081365">
        <ele>35.7061</ele>
        <time>2011-09-02T19:30:07Z</time>
      </trkpt>
      <trkpt lat="59.4639301" lon="17.8079992">
        <ele>35.7061</ele>
        <time>2011-09-02T19:30:12Z</time>
      </trkpt>
      <trkpt lat="59.4637757" lon="17.807882">
        <ele>35.7061</ele>
        <time>2011-09-02T19:30:17Z</time>
      </trkpt>
      <trkpt lat="59.4636491" lon="17.8077643">
        <ele>35.2255</ele>
        <time>2011-09-02T19:30:21Z</time>
      </trkpt>
      <trkpt lat="59.4635354" lon="17.8076641">
        <ele>34.7449</ele>
        <time>2011-09-02T19:30:25Z</time>
      </trkpt>
      <trkpt lat="59.4633781" lon="17.80754">
        <ele>34.7449</ele>
        <time>2011-09-02T19:30:30Z</time>
      </trkpt>
      <trkpt lat="59.4632291" lon="17.8073564">
        <ele>34.7449</ele>
        <time>2011-09-02T19:30:35Z</time>
      </trkpt>
      <trkpt lat="59.463111" lon="17.8071692">
        <ele>34.7449</ele>
        <time>2011-09-02T19:30:39Z</time>
      </trkpt>
      <trkpt lat="59.4629348" lon="17.8069256">
        <ele>34.7449</ele>
        <time>2011-09-02T19:30:45Z</time>
      </trkpt>
      <trkpt lat="59.4628277" lon="17.8067272">
        <ele>35.7061</ele>
        <time>2011-09-02T19:30:50Z</time>
      </trkpt>
      <trkpt lat="59.462691" lon="17.8066531">
        <ele>35.2255</ele>
        <time>2011-09-02T19:30:55Z</time>
      </trkpt>
      <trkpt lat="59.4625252" lon="17.8067358">
        <ele>35.7061</ele>
        <time>2011-09-02T19:31:00Z</time>
      </trkpt>
      <trkpt lat="59.4623434" lon="17.8068044">
        <ele>34.7449</ele>
        <time>2011-09-02T19:31:05Z</time>
      </trkpt>
      <trkpt lat="59.4621688" lon="17.8068483">
        <ele>34.7449</ele>
        <time>2011-09-02T19:31:10Z</time>
      </trkpt>
      <trkpt lat="59.4619752" lon="17.8069037">
        <ele>35.2255</ele>
        <time>2011-09-02T19:31:16Z</time>
      </trkpt>
      <trkpt lat="59.4617865" lon="17.8069052">
        <ele>34.2642</ele>
        <time>2011-09-02T19:31:22Z</time>
      </trkpt>
      <trkpt lat="59.4616354" lon="17.8068125">
        <ele>32.8223</ele>
        <time>2011-09-02T19:31:27Z</time>
      </trkpt>
      <trkpt lat="59.4615579" lon="17.8065521">
        <ele>33.3029</ele>
        <time>2011-09-02T19:31:32Z</time>
      </trkpt>
      <trkpt lat="59.4615315" lon="17.8064352">
        <ele>33.7834</ele>
        <time>2011-09-02T19:31:34Z</time>
      </trkpt>
      <trkpt lat="59.4613479" lon="17.806346">
        <ele>34.2642</ele>
        <time>2011-09-02T19:31:40Z</time>
      </trkpt>
      <trkpt lat="59.4612106" lon="17.8063775">
        <ele>36.6675</ele>
        <time>2011-09-02T19:31:44Z</time>
      </trkpt>
      <trkpt lat="59.4610389" lon="17.8064257">
        <ele>37.6287</ele>
        <time>2011-09-02T19:31:49Z</time>
      </trkpt>
      <trkpt lat="59.4609721" lon="17.8064485">
        <ele>37.6287</ele>
        <time>2011-09-02T19:31:51Z</time>
      </trkpt>
      <trkpt lat="59.4608316" lon="17.8064656">
        <ele>40.5128</ele>
        <time>2011-09-02T19:31:55Z</time>
      </trkpt>
      <trkpt lat="59.4607037" lon="17.8064713">
        <ele>42.4354</ele>
        <time>2011-09-02T19:31:59Z</time>
      </trkpt>
      <trkpt lat="59.4606622" lon="17.80648">
        <ele>42.916</ele>
        <time>2011-09-02T19:32:00Z</time>
      </trkpt>
      <trkpt lat="59.4605118" lon="17.8064318">
        <ele>46.2806</ele>
        <time>2011-09-02T19:32:05Z</time>
      </trkpt>
      <trkpt lat="59.4603262" lon="17.8064568">
        <ele>47.2418</ele>
        <time>2011-09-02T19:32:10Z</time>
      </trkpt>
      <trkpt lat="59.4601584" lon="17.8065092">
        <ele>46.7612</ele>
        <time>2011-09-02T19:32:14Z</time>
      </trkpt>
      <trkpt lat="59.460053" lon="17.8065038">
        <ele>47.2418</ele>
        <time>2011-09-02T19:32:17Z</time>
      </trkpt>
      <trkpt lat="59.4599061" lon="17.8065029">
        <ele>49.1646</ele>
        <time>2011-09-02T19:32:21Z</time>
      </trkpt>
      <trkpt lat="59.4597381" lon="17.8064702">
        <ele>48.684</ele>
        <time>2011-09-02T19:32:26Z</time>
      </trkpt>
      <trkpt lat="59.4595814" lon="17.8064191">
        <ele>47.2418</ele>
        <time>2011-09-02T19:32:31Z</time>
      </trkpt>
      <trkpt lat="59.4594297" lon="17.8064051">
        <ele>44.358</ele>
        <time>2011-09-02T19:32:35Z</time>
      </trkpt>
      <trkpt lat="59.4592906" lon="17.8063718">
        <ele>41.474</ele>
        <time>2011-09-02T19:32:39Z</time>
      </trkpt>
      <trkpt lat="59.4592556" lon="17.8063615">
        <ele>41.474</ele>
        <time>2011-09-02T19:32:40Z</time>
      </trkpt>
      <trkpt lat="59.4590944" lon="17.8063026">
        <ele>37.6287</ele>
        <time>2011-09-02T19:32:45Z</time>
      </trkpt>
      <trkpt lat="59.4590644" lon="17.8062988">
        <ele>38.1094</ele>
        <time>2011-09-02T19:32:46Z</time>
      </trkpt>
      <trkpt lat="59.4588551" lon="17.806204">
        <ele>33.7834</ele>
        <time>2011-09-02T19:32:52Z</time>
      </trkpt>
      <trkpt lat="59.4587297" lon="17.8061663">
        <ele>31.3801</ele>
        <time>2011-09-02T19:32:55Z</time>
      </trkpt>
      <trkpt lat="59.4585633" lon="17.8061551">
        <ele>31.3801</ele>
        <time>2011-09-02T19:32:59Z</time>
      </trkpt>
      <trkpt lat="59.4584257" lon="17.8061703">
        <ele>30.4188</ele>
        <time>2011-09-02T19:33:02Z</time>
      </trkpt>
      <trkpt lat="59.4582449" lon="17.806058">
        <ele>28.9769</ele>
        <time>2011-09-02T19:33:07Z</time>
      </trkpt>
      <trkpt lat="59.4581008" lon="17.8059984">
        <ele>28.9769</ele>
        <time>2011-09-02T19:33:11Z</time>
      </trkpt>
      <trkpt lat="59.4578703" lon="17.8058921">
        <ele>27.0543</ele>
        <time>2011-09-02T19:33:17Z</time>
      </trkpt>
      <trkpt lat="59.4577636" lon="17.8058289">
        <ele>27.5349</ele>
        <time>2011-09-02T19:33:20Z</time>
      </trkpt>
      <trkpt lat="59.4576145" lon="17.8057746">
        <ele>28.0155</ele>
        <time>2011-09-02T19:33:24Z</time>
      </trkpt>
      <trkpt lat="59.4575752" lon="17.8057607">
        <ele>28.0155</ele>
        <time>2011-09-02T19:33:25Z</time>
      </trkpt>
      <trkpt lat="59.4573589" lon="17.8055938">
        <ele>28.9769</ele>
        <time>2011-09-02T19:33:31Z</time>
      </trkpt>
      <trkpt lat="59.4573086" lon="17.8053198">
        <ele>29.4575</ele>
        <time>2011-09-02T19:33:35Z</time>
      </trkpt>
      <trkpt lat="59.457377" lon="17.8050657">
        <ele>29.9381</ele>
        <time>2011-09-02T19:33:39Z</time>
      </trkpt>
      <trkpt lat="59.4575238" lon="17.8048024">
        <ele>31.3801</ele>
        <time>2011-09-02T19:33:44Z</time>
      </trkpt>
      <trkpt lat="59.4576808" lon="17.8046298">
        <ele>30.8995</ele>
        <time>2011-09-02T19:33:49Z</time>
      </trkpt>
      <trkpt lat="59.457745" lon="17.8045626">
        <ele>30.4188</ele>
        <time>2011-09-02T19:33:51Z</time>
      </trkpt>
      <trkpt lat="59.4579243" lon="17.8044531">
        <ele>28.9769</ele>
        <time>2011-09-02T19:33:56Z</time>
      </trkpt>
      <trkpt lat="59.4579626" lon="17.8044303">
        <ele>28.4962</ele>
        <time>2011-09-02T19:33:57Z</time>
      </trkpt>
      <trkpt lat="59.4581755" lon="17.8042713">
        <ele>26.5736</ele>
        <time>2011-09-02T19:34:03Z</time>
      </trkpt>
      <trkpt lat="59.45832" lon="17.8042413">
        <ele>26.0929</ele>
        <time>2011-09-02T19:34:07Z</time>
      </trkpt>
      <trkpt lat="59.4584754" lon="17.804275">
        <ele>25.6123</ele>
        <time>2011-09-02T19:34:11Z</time>
      </trkpt>
      <trkpt lat="59.4586803" lon="17.8042603">
        <ele>25.6123</ele>
        <time>2011-09-02T19:34:16Z</time>
      </trkpt>
      <trkpt lat="59.4588112" lon="17.8042175">
        <ele>25.6123</ele>
        <time>2011-09-02T19:34:20Z</time>
      </trkpt>
      <trkpt lat="59.4588473" lon="17.8042009">
        <ele>26.0929</ele>
        <time>2011-09-02T19:34:21Z</time>
      </trkpt>
    </trkseg>
  </trk>
</gpx>